Alps Wideshine — 9HA2472 — position and weather

sailwx.info

Track history (hours):
 
Tides and Currents Weather Stations Pressure Air Temp Water Temp Dewpoint Dewpoint Depression Visibility Wind Speed Wind Dir Waves Ship Positions

Alps Wideshine

Last reported at 2018-May-15 22:18 UTC. Time now 2018-May-25 12:42 UTC.
Position N 30°60' E 122°29'.
Warning: this ship's position is 9 days out of date.

Length 107 m; draft 4.6 m.

Type: Tanker. MMSI: 248694000.

Date/timePositionNaut miles runAvg speedWind from/ knotsBaromVisibWave heightAir tempDewpointWater temp
2018-May-15 22:18N 30°60' E 122°29'311.8
2018-May-15 22:00N 31°01' E 122°25'712.0
2018-May-15 21:26N 31°02' E 122°17'510.7
2018-May-15 21:00N 31°03' E 122°12'913.2
2018-May-15 20:21N 31°04' E 122°02'613.6
2018-May-15 19:57N 31°07' E 121°56'814.3
2018-May-15 19:23N 31°12' E 121°49'2210.6
2018-May-15 17:15N 31°26' E 121°29'2 7.2
2018-May-15 16:59N 31°28' E 121°27'4 8.3
2018-May-15 16:30N 31°31' E 121°24'4 8.3
2018-May-15 16:00N 31°33' E 121°20'4 8.1
2018-May-15 15:30N 31°36' E 121°17'4 8.9
2018-May-15 15:00N 31°39' E 121°13'3911.4
2018-May-15 11:33N 32°00' E 120°34'  
2018-May-11 05:54N 31°46' E 121°04'4 8.8
2018-May-11 05:30N 31°44' E 121°07'510.4
2018-May-11 05:00N 31°41' E 121°12'510.9
2018-May-11 04:30N 31°37' E 121°16'611.3
2018-May-11 04:00N 31°33' E 121°21'3610.6
2018-May-11 00:35N 31°09' E 121°53'113.2
2018-May-11 00:30N 31°09' E 121°54'611.1
2018-May-11 00:00N 31°06' E 121°60'3311.4
2018-May-10 21:08N 30°60' E 122°37'4 4.9
2018-May-10 20:25N 31°01' E 122°41'  
Track history (hours):
 
Tides and Currents Weather Stations Pressure Air Temp Water Temp Dewpoint Dewpoint Depression Visibility Wind Speed Wind Dir Waves Ship Positions

Alps Wideshine

Last reported at 2018-May-15 22:18 UTC. Time now 2018-May-25 12:42 UTC.
Position N 30°60' E 122°29'.
Warning: this ship's position is 9 days out of date.

Length 107 m; draft 4.6 m.

Type: Tanker. MMSI: 248694000.

Date/timePositionNaut miles runAvg speedWind from/ knotsBaromVisibWave heightAir tempDewpointWater temp
2018-May-15 22:18N 30°60' E 122°29'311.8
2018-May-15 22:00N 31°01' E 122°25'712.0
2018-May-15 21:26N 31°02' E 122°17'510.7
2018-May-15 21:00N 31°03' E 122°12'913.2
2018-May-15 20:21N 31°04' E 122°02'613.6
2018-May-15 19:57N 31°07' E 121°56'814.3
2018-May-15 19:23N 31°12' E 121°49'2210.6
2018-May-15 17:15N 31°26' E 121°29'2 7.2
2018-May-15 16:59N 31°28' E 121°27'4 8.3
2018-May-15 16:30N 31°31' E 121°24'4 8.3
2018-May-15 16:00N 31°33' E 121°20'4 8.1
2018-May-15 15:30N 31°36' E 121°17'4 8.9
2018-May-15 15:00N 31°39' E 121°13'3911.4
2018-May-15 11:33N 32°00' E 120°34'  
2018-May-11 05:54N 31°46' E 121°04'4 8.8
2018-May-11 05:30N 31°44' E 121°07'510.4
2018-May-11 05:00N 31°41' E 121°12'510.9
2018-May-11 04:30N 31°37' E 121°16'611.3
2018-May-11 04:00N 31°33' E 121°21'3610.6
2018-May-11 00:35N 31°09' E 121°53'113.2
2018-May-11 00:30N 31°09' E 121°54'611.1
2018-May-11 00:00N 31°06' E 121°60'3311.4
2018-May-10 21:08N 30°60' E 122°37'4 4.9
2018-May-10 20:25N 31°01' E 122°41'  

Dump ship's entire track history